createdAt,value
2019-02-10T16:57:31.852Z,7.30
2019-02-10T17:00:00.910Z,7.20
2019-02-10T17:02:30.929Z,7.20
2019-02-10T17:04:59.744Z,7.20
2019-02-10T17:07:28.605Z,7.20
2019-02-10T17:09:57.415Z,7.20
2019-02-10T17:12:26.309Z,7.20
2019-02-10T17:14:55.101Z,7.20
2019-02-10T18:23:38.045Z,4.50
2019-02-10T18:26:18.697Z,4.50
2019-02-10T18:29:05.336Z,4.50
2019-02-10T18:31:43.205Z,4.50
2019-02-10T18:34:23.045Z,4.40
2019-02-10T18:37:02.884Z,4.40
2019-02-10T18:39:51.034Z,4.30
2019-02-10T18:42:35.268Z,4.30
2019-02-10T18:45:26.605Z,4.40
2019-02-10T18:48:19.770Z,4.40
2019-02-10T18:51:05.544Z,4.40
2019-02-10T18:54:02.881Z,4.50
2019-02-10T18:56:49.561Z,4.80
2019-02-10T18:59:43.733Z,5.00
2019-02-10T19:02:24.438Z,5.10
2019-02-10T19:05:04.613Z,5.20
2019-02-10T19:07:55.572Z,5.20
2019-02-10T19:10:43.460Z,5.20
2019-02-10T19:13:24.292Z,5.20
2019-02-10T19:16:10.861Z,5.10
2019-02-10T19:19:01.788Z,5.10
2019-02-10T19:21:55.842Z,5.10
2019-02-10T19:24:49.957Z,5.10
2019-02-10T19:27:50.385Z,5.10
2019-02-10T19:30:35.317Z,5.20
2019-02-10T19:33:21.753Z,5.20
2019-02-10T19:36:12.677Z,5.30
2019-02-10T19:38:59.369Z,5.30
2019-02-10T19:41:43.563Z,5.30
2019-02-10T19:44:22.294Z,5.30
2019-02-10T19:47:10.031Z,5.30
2019-02-10T19:49:56.941Z,5.20
2019-02-10T19:52:48.221Z,5.30
2019-02-10T19:55:35.156Z,5.20
2019-02-10T19:58:21.985Z,5.20
2019-02-10T20:01:15.929Z,5.20
2019-02-10T20:04:09.701Z,5.20
2019-02-10T20:06:50.603Z,5.20
2019-02-10T20:09:35.092Z,5.30
2019-02-10T20:12:18.913Z,5.30
2019-02-10T20:15:13.097Z,5.30
2019-02-10T20:18:01.005Z,5.30
2019-02-10T20:20:47.784Z,5.30
2019-02-10T20:23:22.885Z,5.30
2019-02-10T20:26:09.339Z,5.30
2019-02-10T20:28:54.128Z,5.50
2019-02-10T20:31:57.032Z,5.30
2019-02-10T20:34:50.695Z,5.30
2019-02-10T20:37:30.424Z,5.20
2019-02-10T20:40:23.003Z,5.30
2019-02-10T20:43:14.011Z,5.20
2019-02-10T20:46:01.148Z,5.00
2019-02-10T20:48:52.436Z,5.00
2019-02-10T20:51:47.745Z,4.90
2019-02-10T20:54:35.586Z,4.80
2019-02-10T20:57:15.941Z,4.80
2019-02-10T21:00:16.486Z,4.80
2019-02-10T21:03:13.649Z,4.80
2019-02-10T21:06:13.645Z,4.80
2019-02-10T21:09:00.298Z,4.80
2019-02-10T21:11:43.676Z,4.80
2019-02-10T21:14:27.606Z,4.80
2019-02-10T21:17:14.439Z,4.80
2019-02-10T21:19:53.857Z,4.80
2019-02-10T21:22:30.948Z,4.80
2019-02-10T21:25:13.446Z,4.80
2019-02-10T21:28:00.145Z,4.80
2019-02-10T21:30:38.896Z,4.90
2019-02-10T21:33:17.082Z,4.90
2019-02-10T21:36:11.181Z,4.90
2019-02-10T21:39:02.107Z,4.90
2019-02-10T21:41:48.264Z,4.90
2019-02-10T21:44:31.929Z,4.90
2019-02-10T21:47:12.569Z,4.80
2019-02-10T21:49:41.448Z,4.80
2019-02-10T21:52:10.334Z,4.80
2019-02-10T21:54:39.487Z,4.70
2019-02-10T21:57:08.301Z,4.70
2019-02-10T21:59:37.445Z,4.70
2019-02-10T22:02:06.324Z,4.70
2019-02-10T22:04:35.121Z,4.70
2019-02-10T22:07:03.929Z,4.60
2019-02-10T22:09:32.719Z,4.60
2019-02-10T22:12:02.525Z,4.50
2019-02-10T22:14:31.325Z,4.30
2019-02-10T22:17:00.501Z,4.30
2019-02-10T22:19:29.284Z,4.10
2019-02-10T22:21:58.257Z,4.00
2019-02-10T22:24:27.069Z,3.90
2019-02-10T22:26:55.880Z,3.80
2019-02-10T22:29:24.989Z,3.70
2019-02-10T22:31:53.872Z,3.70
2019-02-10T22:34:22.685Z,3.60
2019-02-10T22:36:51.882Z,3.60
2019-02-10T22:39:20.681Z,3.60
2019-02-10T22:41:49.508Z,3.60
2019-02-10T22:44:18.618Z,3.50
2019-02-10T22:46:47.668Z,3.50
2019-02-10T22:49:16.471Z,3.50
2019-02-10T22:51:45.532Z,3.60
2019-02-10T22:54:14.327Z,3.60
2019-02-10T22:56:43.129Z,3.60
2019-02-10T22:59:12.262Z,3.60
2019-02-10T23:01:41.163Z,3.70
2019-02-10T23:04:09.956Z,3.70
2019-02-10T23:06:38.913Z,3.70
2019-02-10T23:09:13.635Z,3.70
2019-02-10T23:11:42.462Z,3.60
2019-02-10T23:14:11.273Z,3.50
2019-02-10T23:16:40.104Z,3.50
2019-02-10T23:19:08.937Z,3.40
2019-02-10T23:21:38.184Z,3.40
2019-02-10T23:24:07.004Z,3.40
2019-02-10T23:26:35.837Z,3.40
2019-02-10T23:29:04.714Z,3.40
2019-02-10T23:31:33.521Z,3.40
2019-02-10T23:34:02.361Z,3.40
2019-02-10T23:36:31.166Z,3.40
2019-02-10T23:38:59.962Z,3.40
2019-02-10T23:41:28.744Z,3.30
2019-02-10T23:43:57.549Z,3.30
2019-02-10T23:46:26.342Z,3.30
2019-02-10T23:48:55.149Z,3.30
2019-02-10T23:51:23.947Z,3.30
2019-02-10T23:53:52.733Z,3.30
2019-02-10T23:56:21.593Z,3.40
2019-02-10T23:58:50.679Z,3.40
